createdAt,value
2018-03-23T00:02:06.800Z,44.13
2018-03-23T00:04:33.084Z,40.60
2018-03-23T00:06:59.367Z,40.58
2018-03-23T00:09:25.746Z,45.42
2018-03-23T00:11:52.011Z,43.15
2018-03-23T00:14:18.256Z,60.45
2018-03-23T00:16:44.516Z,43.35
2018-03-23T00:19:10.839Z,58.95
2018-03-23T00:21:37.140Z,49.45
2018-03-23T00:24:03.532Z,52.03
2018-03-23T00:26:29.789Z,49.97
2018-03-23T00:28:56.074Z,47.83
2018-03-23T00:31:22.383Z,46.17
2018-03-23T00:33:49.355Z,45.65
2018-03-23T00:36:15.648Z,55.65
2018-03-23T00:38:41.911Z,51.08
2018-03-23T00:41:08.240Z,42.90
2018-03-23T00:43:34.547Z,49.33
2018-03-23T00:46:01.556Z,52.05
2018-03-23T00:48:27.836Z,45.15
2018-03-23T00:50:54.836Z,52.65
2018-03-23T00:53:21.116Z,44.42
2018-03-23T00:55:47.363Z,50.47
2018-03-23T00:58:13.724Z,56.30
2018-03-23T01:00:40.008Z,56.15
2018-03-23T01:03:06.264Z,50.72
2018-03-23T01:05:32.531Z,53.85
2018-03-23T01:07:58.779Z,66.97
2018-03-23T01:10:25.760Z,50.53
2018-03-23T01:12:52.028Z,56.28
2018-03-23T01:15:18.277Z,51.22
2018-03-23T01:17:45.324Z,57.38
2018-03-23T01:20:11.625Z,47.00
2018-03-23T01:22:41.014Z,56.33
2018-03-23T01:25:07.312Z,50.70
2018-03-23T01:27:33.584Z,50.95
2018-03-23T01:29:59.876Z,53.55
2018-03-23T01:32:26.166Z,57.45
2018-03-23T01:34:52.870Z,58.87
2018-03-23T01:37:19.149Z,64.30
2018-03-23T01:39:45.383Z,56.22
2018-03-23T01:42:12.418Z,47.83
2018-03-23T01:44:38.926Z,57.42
2018-03-23T01:47:05.203Z,59.80
2018-03-23T01:49:31.521Z,61.37
2018-03-23T01:51:57.756Z,53.15
2018-03-23T01:54:24.791Z,59.65
2018-03-23T01:56:51.153Z,51.25
2018-03-23T01:59:17.416Z,44.90
2018-03-23T02:01:43.694Z,51.08
2018-03-23T02:04:09.931Z,50.75
2018-03-23T02:06:36.188Z,52.03
2018-03-23T02:09:02.543Z,77.25
2018-03-23T02:11:28.819Z,67.03
2018-03-23T02:13:55.859Z,59.03
2018-03-23T02:16:22.939Z,49.63
2018-03-23T02:18:49.200Z,43.50
2018-03-23T02:21:15.463Z,41.55
2018-03-23T02:23:41.791Z,45.28
2018-03-23T02:26:08.088Z,43.58
2018-03-23T02:28:34.316Z,42.00
2018-03-23T02:31:00.610Z,41.92
2018-03-23T02:33:26.840Z,43.38
2018-03-23T02:35:53.095Z,53.28
2018-03-23T02:38:19.384Z,51.72
2018-03-23T02:40:46.407Z,55.40
2018-03-23T02:43:13.436Z,45.45
2018-03-23T02:45:39.727Z,46.88
2018-03-23T02:48:06.000Z,51.05
2018-03-23T02:50:33.088Z,48.00
2018-03-23T02:53:00.123Z,52.55
2018-03-23T02:55:27.127Z,70.53
2018-03-23T02:57:53.383Z,61.67
2018-03-23T03:00:19.662Z,51.70
2018-03-23T03:02:45.898Z,51.72
2018-03-23T03:05:12.159Z,43.83
2018-03-23T03:07:38.407Z,48.33
2018-03-23T03:10:04.699Z,50.72
2018-03-23T03:12:30.991Z,55.00
2018-03-23T03:14:57.975Z,58.58
2018-03-23T03:17:24.243Z,48.90
2018-03-23T03:19:50.493Z,44.03
2018-03-23T03:22:17.500Z,38.90
2018-03-23T03:24:43.758Z,41.55
2018-03-23T03:27:10.819Z,44.80
2018-03-23T03:29:37.807Z,43.22
2018-03-23T03:32:04.157Z,50.17
2018-03-23T03:34:30.420Z,65.75
2018-03-23T03:36:57.407Z,48.63
2018-03-23T03:39:23.685Z,46.50
2018-03-23T03:41:50.687Z,37.90
2018-03-23T03:44:17.275Z,44.80
2018-03-23T03:46:44.260Z,45.75
2018-03-23T03:49:10.562Z,43.72
2018-03-23T03:51:37.563Z,47.55
2018-03-23T03:54:03.849Z,66.80
2018-03-23T03:56:30.087Z,63.40
2018-03-23T03:58:56.351Z,56.88
2018-03-23T04:01:22.584Z,61.15
2018-03-23T04:03:49.611Z,63.47
2018-03-23T04:06:15.863Z,58.40
2018-03-23T04:08:42.132Z,63.15
2018-03-23T04:11:09.142Z,60.40
2018-03-23T04:13:35.387Z,60.72
2018-03-23T04:16:01.636Z,64.03
2018-03-23T04:18:28.677Z,59.72
2018-03-23T04:20:55.700Z,58.75
2018-03-23T04:23:21.959Z,68.43
2018-03-23T04:25:48.975Z,52.75
2018-03-23T04:28:15.221Z,68.50
2018-03-23T04:30:41.473Z,61.50
2018-03-23T04:33:08.460Z,53.50
2018-03-23T04:35:34.725Z,65.43
2018-03-23T04:38:00.977Z,59.67
2018-03-23T04:40:27.975Z,53.65
2018-03-23T04:42:54.271Z,51.15
2018-03-23T04:45:20.512Z,58.17
2018-03-23T04:47:46.775Z,49.72
2018-03-23T04:50:13.060Z,45.92
2018-03-23T04:52:39.295Z,50.47
2018-03-23T04:55:05.567Z,52.33
2018-03-23T04:57:31.810Z,58.05
2018-03-23T04:59:58.823Z,53.60
2018-03-23T05:02:25.078Z,49.85
2018-03-23T05:04:51.339Z,52.88
2018-03-23T05:07:17.587Z,48.33
2018-03-23T05:09:43.884Z,40.97
2018-03-23T05:12:10.887Z,44.90
2018-03-23T05:14:37.136Z,38.67
2018-03-23T05:17:03.400Z,43.97
2018-03-23T05:19:30.399Z,46.90
2018-03-23T05:21:56.737Z,35.28
2018-03-23T05:24:23.015Z,39.10
2018-03-23T05:26:49.285Z,59.08
2018-03-23T05:29:15.548Z,43.15
2018-03-23T05:31:41.791Z,33.35
2018-03-23T05:34:08.804Z,40.15
2018-03-23T05:36:35.079Z,41.72
2018-03-23T05:39:01.336Z,40.75
2018-03-23T05:41:27.567Z,58.83
2018-03-23T05:43:53.814Z,42.50
2018-03-23T05:46:20.149Z,44.33
2018-03-23T05:48:46.363Z,40.17
2018-03-23T05:51:12.606Z,34.70
2018-03-23T05:53:38.887Z,33.45
2018-03-23T05:56:05.147Z,42.53
2018-03-23T05:58:31.402Z,34.58
2018-03-23T06:00:57.679Z,32.45
2018-03-23T06:03:23.953Z,36.17
2018-03-23T06:05:50.215Z,42.88
2018-03-23T06:08:16.513Z,37.83
2018-03-23T06:10:42.763Z,35.50
2018-03-23T06:13:09.031Z,40.67
2018-03-23T06:15:35.276Z,38.67
2018-03-23T06:18:01.597Z,37.30
2018-03-23T06:20:27.869Z,29.50
2018-03-23T06:22:54.163Z,36.60
2018-03-23T06:25:20.438Z,37.45
2018-03-23T06:27:46.707Z,48.25
2018-03-23T06:30:12.979Z,48.30
2018-03-23T06:32:39.264Z,42.17
2018-03-23T06:35:05.611Z,36.00
2018-03-23T06:37:31.865Z,30.65
2018-03-23T06:39:58.851Z,41.63
2018-03-23T06:42:25.861Z,42.50
2018-03-23T06:44:52.116Z,32.78
2018-03-23T06:47:18.372Z,35.33
2018-03-23T06:49:44.611Z,38.22
2018-03-23T06:52:10.898Z,33.42
2018-03-23T06:54:37.176Z,39.47
2018-03-23T06:57:03.505Z,36.63
2018-03-23T06:59:29.747Z,33.88
2018-03-23T07:01:56.028Z,45.40
2018-03-23T07:04:22.273Z,44.05
2018-03-23T07:06:48.555Z,38.13
2018-03-23T07:09:14.815Z,37.15
2018-03-23T07:11:41.829Z,31.00
2018-03-23T07:14:08.095Z,36.15
2018-03-23T07:16:35.091Z,31.27
2018-03-23T07:19:01.350Z,41.08
2018-03-23T07:21:27.620Z,44.35
2018-03-23T07:23:53.852Z,32.40
2018-03-23T07:26:20.137Z,29.98
2018-03-23T07:28:46.400Z,34.58
2018-03-23T07:31:12.671Z,41.55
2018-03-23T07:33:38.934Z,31.98
2018-03-23T07:36:05.311Z,33.58
2018-03-23T07:38:31.560Z,33.83
2018-03-23T07:40:57.813Z,34.15
2018-03-23T07:43:24.809Z,38.42
2018-03-23T07:45:51.122Z,36.75
2018-03-23T07:48:18.127Z,29.85
2018-03-23T07:50:44.379Z,31.90
2018-03-23T07:53:10.641Z,27.67
2018-03-23T07:55:36.888Z,31.23
2018-03-23T07:58:03.171Z,27.60
2018-03-23T08:00:30.186Z,32.10
2018-03-23T08:02:56.474Z,30.98
2018-03-23T08:05:22.773Z,28.05
2018-03-23T08:07:49.053Z,26.52
2018-03-23T08:10:15.343Z,24.87
2018-03-23T08:12:41.610Z,26.80
2018-03-23T08:15:07.892Z,26.77
2018-03-23T08:17:34.159Z,27.20
2018-03-23T08:20:00.440Z,21.20
2018-03-23T08:22:26.699Z,24.95
2018-03-23T08:24:53.733Z,32.00
2018-03-23T08:27:20.004Z,29.98
2018-03-23T08:29:46.260Z,23.25
2018-03-23T08:32:12.585Z,22.08
2018-03-23T08:34:38.864Z,25.75
2018-03-23T08:37:05.903Z,19.45
2018-03-23T08:39:32.135Z,20.92
2018-03-23T08:41:59.168Z,24.23
2018-03-23T08:44:25.433Z,25.67
2018-03-23T08:46:52.414Z,27.15
2018-03-23T08:49:18.718Z,23.20
2018-03-23T08:51:45.024Z,20.27
2018-03-23T08:54:11.351Z,24.65
2018-03-23T08:56:39.215Z,19.02
2018-03-23T08:59:05.476Z,20.77
2018-03-23T09:01:31.749Z,16.65
2018-03-23T09:03:57.996Z,19.65
2018-03-23T09:06:25.003Z,25.60
2018-03-23T09:08:51.272Z,19.27
2018-03-23T09:11:17.528Z,22.50
2018-03-23T09:13:44.515Z,17.23
2018-03-23T09:16:10.777Z,15.77
2018-03-23T09:18:37.044Z,17.45
2018-03-23T09:21:03.343Z,21.25
2018-03-23T09:23:29.579Z,17.92
2018-03-23T09:25:56.596Z,20.40
2018-03-23T09:28:22.848Z,21.10
2018-03-23T09:30:49.092Z,19.75
2018-03-23T09:33:16.092Z,19.90
2018-03-23T09:35:42.465Z,19.50
2018-03-23T09:38:08.731Z,15.98
2018-03-23T09:40:34.991Z,16.12
2018-03-23T09:43:01.279Z,15.80
2018-03-23T09:45:27.524Z,19.08
2018-03-23T09:47:53.793Z,16.25
2018-03-23T09:50:20.065Z,20.55
2018-03-23T09:52:46.331Z,13.57
2018-03-23T09:55:12.588Z,24.58
2018-03-23T09:57:38.856Z,25.62
2018-03-23T10:00:05.148Z,13.13
2018-03-23T10:02:31.387Z,13.25
2018-03-23T10:04:58.373Z,13.13
2018-03-23T10:07:24.637Z,15.48
2018-03-23T10:09:50.898Z,15.90
2018-03-23T10:12:17.899Z,10.93
2018-03-23T10:14:44.150Z,12.27
2018-03-23T10:17:10.407Z,14.60
2018-03-23T10:19:37.465Z,13.55
2018-03-23T10:22:03.830Z,13.38
2018-03-23T10:24:30.073Z,13.15
2018-03-23T10:26:56.324Z,20.42
2018-03-23T10:29:22.579Z,12.27
2018-03-23T10:31:49.599Z,14.00
2018-03-23T10:34:15.880Z,24.67
2018-03-23T10:36:42.120Z,15.75
2018-03-23T10:39:08.389Z,17.05
2018-03-23T10:41:51.474Z,15.57
2018-03-23T10:44:19.033Z,17.60
2018-03-23T10:46:45.326Z,17.33
2018-03-23T10:49:12.347Z,15.35
2018-03-23T10:51:38.946Z,15.57
2018-03-23T10:54:05.253Z,15.20
2018-03-23T10:56:31.518Z,14.00
2018-03-23T10:58:57.786Z,16.12
2018-03-23T11:01:30.193Z,15.85
2018-03-23T11:03:56.443Z,12.88
2018-03-23T11:06:22.756Z,16.05
2018-03-23T11:08:49.012Z,40.12
2018-03-23T11:11:15.291Z,22.13
2018-03-23T11:13:42.292Z,14.82
2018-03-23T11:16:08.667Z,18.55
2018-03-23T11:18:35.668Z,13.90
2018-03-23T11:21:01.913Z,16.87
2018-03-23T11:23:28.216Z,15.93
2018-03-23T11:25:54.503Z,17.05
2018-03-23T11:28:21.516Z,13.93
2018-03-23T11:30:47.769Z,31.05
2018-03-23T11:33:14.759Z,17.05
2018-03-23T11:35:41.092Z,16.23
2018-03-23T11:38:07.327Z,15.10
2018-03-23T11:40:33.644Z,21.20
2018-03-23T11:42:59.908Z,21.87
2018-03-23T11:45:26.168Z,11.60
2018-03-23T11:47:53.200Z,21.30
2018-03-23T11:50:19.439Z,13.20
2018-03-23T11:52:45.815Z,21.60
2018-03-23T11:55:12.071Z,16.55
2018-03-23T11:57:38.348Z,20.77
2018-03-23T12:00:05.652Z,12.75
2018-03-23T12:02:31.915Z,18.52
2018-03-23T12:04:58.187Z,14.00
2018-03-23T12:07:24.513Z,13.95
2018-03-23T12:09:51.472Z,14.18
2018-03-23T12:12:17.715Z,13.32
2018-03-23T12:14:43.996Z,11.82
2018-03-23T12:17:10.982Z,16.42
2018-03-23T12:19:37.290Z,20.55
2018-03-23T12:22:03.634Z,14.70
2018-03-23T12:24:29.888Z,17.10
2018-03-23T12:26:56.168Z,15.07
2018-03-23T12:29:22.422Z,15.88
2018-03-23T12:31:48.727Z,15.75
2018-03-23T12:34:15.699Z,14.48
2018-03-23T12:36:41.980Z,18.60
2018-03-23T12:39:09.003Z,15.27
2018-03-23T12:41:35.247Z,15.65
2018-03-23T12:44:01.551Z,16.67
2018-03-23T12:46:27.784Z,14.23
2018-03-23T12:48:54.058Z,15.75
2018-03-23T12:51:21.083Z,9.10
2018-03-23T12:53:47.344Z,12.85
2018-03-23T12:56:14.381Z,15.07
2018-03-23T12:58:41.370Z,16.92
2018-03-23T13:01:07.620Z,11.75
2018-03-23T13:03:34.736Z,15.07
2018-03-23T13:06:01.033Z,13.35
2018-03-23T13:08:27.576Z,12.75
2018-03-23T13:10:54.785Z,20.15
2018-03-23T13:13:21.076Z,13.57
2018-03-23T13:15:47.363Z,13.55
2018-03-23T13:18:14.410Z,15.25
2018-03-23T13:20:40.716Z,18.58
2018-03-23T13:23:07.020Z,13.73
2018-03-23T13:25:33.320Z,17.08
2018-03-23T13:28:00.339Z,13.30
2018-03-23T13:30:26.608Z,11.48
2018-03-23T13:32:53.616Z,16.08
2018-03-23T13:35:19.901Z,14.75
2018-03-23T13:37:46.172Z,10.85
2018-03-23T13:40:12.441Z,9.95
2018-03-23T13:42:38.701Z,17.05
2018-03-23T13:45:04.992Z,19.87
2018-03-23T13:47:32.052Z,14.48
2018-03-23T13:49:58.418Z,18.50
2018-03-23T13:52:24.615Z,17.20
2018-03-23T13:54:50.896Z,20.20
2018-03-23T13:57:17.189Z,9.73
2018-03-23T13:59:49.441Z,7.40
2018-03-23T14:02:16.532Z,8.45
2018-03-23T14:04:42.815Z,14.40
2018-03-23T14:07:09.909Z,17.23
2018-03-23T14:09:36.159Z,15.05
2018-03-23T14:12:02.441Z,14.15
2018-03-23T14:14:28.695Z,8.60
2018-03-23T14:16:54.995Z,11.60
2018-03-23T14:19:21.257Z,10.02
2018-03-23T14:21:47.505Z,8.98
2018-03-23T14:24:13.772Z,9.50
2018-03-23T14:26:41.855Z,16.52
2018-03-23T14:29:08.850Z,11.80
2018-03-23T14:31:35.093Z,11.82
2018-03-23T14:34:01.378Z,11.35
2018-03-23T14:36:27.643Z,12.02
2018-03-23T14:38:53.885Z,9.40
2018-03-23T14:41:20.188Z,12.18
2018-03-23T14:43:46.468Z,11.77
2018-03-23T14:46:13.472Z,21.90
2018-03-23T14:48:39.796Z,11.48
2018-03-23T14:51:06.776Z,7.32
2018-03-23T14:53:33.039Z,8.13
2018-03-23T14:55:59.282Z,8.30
2018-03-23T14:58:25.576Z,9.00
2018-03-23T15:00:52.572Z,7.43
2018-03-23T15:03:19.555Z,7.40
2018-03-23T15:05:46.611Z,6.10
2018-03-23T15:08:13.617Z,9.18
2018-03-23T15:10:39.955Z,8.20
2018-03-23T15:13:06.275Z,10.77
2018-03-23T15:15:32.589Z,6.40
2018-03-23T15:17:58.847Z,9.43
2018-03-23T15:20:25.133Z,10.13
2018-03-23T15:22:52.141Z,6.82
2018-03-23T15:25:19.175Z,9.07
2018-03-23T15:27:45.444Z,12.23
2018-03-23T15:30:12.532Z,15.82
2018-03-23T15:32:38.834Z,8.57
2018-03-23T15:35:05.891Z,6.72
2018-03-23T15:37:32.168Z,9.70
2018-03-23T15:39:58.470Z,11.00
2018-03-23T15:42:24.785Z,13.55
2018-03-23T15:44:51.121Z,13.82
2018-03-23T15:47:17.391Z,9.40
2018-03-23T15:49:43.681Z,12.55
2018-03-23T15:52:09.932Z,12.82
2018-03-23T15:54:36.200Z,11.20
2018-03-23T15:57:03.235Z,10.55
2018-03-23T15:59:29.530Z,9.48
2018-03-23T16:01:55.818Z,14.73
2018-03-23T16:04:22.857Z,13.60
2018-03-23T16:06:49.144Z,13.57
2018-03-23T16:09:15.429Z,19.33
2018-03-23T16:11:42.435Z,21.33
2018-03-23T16:14:08.700Z,11.90
2018-03-23T16:16:36.060Z,16.35
2018-03-23T16:19:03.068Z,13.13
2018-03-23T16:21:29.340Z,22.17
2018-03-23T16:23:56.380Z,13.88
2018-03-23T16:26:23.392Z,15.80
2018-03-23T16:28:49.685Z,16.40
2018-03-23T16:31:15.985Z,15.13
2018-03-23T16:33:43.029Z,14.77
2018-03-23T16:36:09.298Z,16.45
2018-03-23T16:38:35.564Z,16.58
2018-03-23T16:41:01.841Z,19.48
2018-03-23T16:43:28.087Z,14.93
2018-03-23T16:45:54.391Z,21.05
2018-03-23T16:48:20.648Z,17.85
2018-03-23T16:50:46.904Z,16.85
2018-03-23T16:53:13.172Z,20.05
2018-03-23T16:55:40.167Z,17.98
2018-03-23T16:58:07.204Z,17.35
2018-03-23T17:00:33.447Z,18.25
2018-03-23T17:02:59.710Z,15.07
2018-03-23T17:05:25.970Z,19.83
2018-03-23T17:07:52.308Z,13.55
2018-03-23T17:10:18.566Z,16.65
2018-03-23T17:12:45.582Z,17.87
2018-03-23T17:15:11.860Z,18.60
2018-03-23T17:17:38.200Z,16.20
2018-03-23T17:20:05.274Z,18.20
2018-03-23T17:22:32.303Z,18.05
2018-03-23T17:24:59.331Z,23.58
2018-03-23T17:27:26.363Z,16.10
2018-03-23T17:29:52.667Z,16.35
2018-03-23T17:32:18.999Z,17.70
2018-03-23T17:34:45.306Z,16.98
2018-03-23T17:37:12.330Z,13.73
2018-03-23T17:39:38.583Z,14.07
2018-03-23T17:42:05.579Z,14.85
2018-03-23T17:44:31.859Z,17.73
2018-03-23T17:46:58.889Z,17.17
2018-03-23T17:49:25.206Z,16.05
2018-03-23T17:51:51.504Z,18.77
2018-03-23T17:54:17.784Z,14.20
2018-03-23T17:56:44.040Z,17.50
2018-03-23T17:59:10.710Z,16.00
2018-03-23T18:01:36.966Z,14.50
2018-03-23T18:04:03.272Z,19.70
2018-03-23T18:06:29.613Z,21.77
2018-03-23T18:08:55.887Z,16.58
2018-03-23T18:11:22.880Z,13.95
2018-03-23T18:13:49.155Z,15.98
2018-03-23T18:16:16.216Z,17.98
2018-03-23T18:18:43.176Z,16.95
2018-03-23T18:21:09.463Z,16.37
2018-03-23T18:23:35.754Z,16.52
2018-03-23T18:26:02.802Z,15.15
2018-03-23T18:28:29.110Z,16.02
2018-03-23T18:30:55.418Z,18.60
2018-03-23T18:33:22.442Z,14.38
2018-03-23T18:35:49.680Z,17.00
2018-03-23T18:38:15.976Z,18.67
2018-03-23T18:40:42.300Z,18.60
2018-03-23T18:43:08.633Z,19.62
2018-03-23T18:45:34.958Z,18.20
2018-03-23T18:48:01.276Z,21.27
2018-03-23T18:50:27.601Z,18.12
2018-03-23T18:52:53.923Z,14.87
2018-03-23T18:55:20.980Z,15.15
2018-03-23T18:57:48.007Z,15.32
2018-03-23T19:00:14.323Z,17.33
2018-03-23T19:02:40.655Z,16.87
2018-03-23T19:05:07.018Z,15.52
2018-03-23T19:07:34.071Z,13.82
2018-03-23T19:10:00.387Z,17.35
2018-03-23T19:12:27.476Z,15.52
2018-03-23T19:14:53.780Z,16.70
2018-03-23T19:17:20.767Z,14.20
2018-03-23T19:19:47.023Z,15.00
2018-03-23T19:22:13.269Z,17.77
2018-03-23T19:24:39.515Z,19.05
2018-03-23T19:27:06.570Z,13.38
2018-03-23T19:29:32.791Z,17.35
2018-03-23T19:31:59.802Z,15.70
2018-03-23T19:34:26.175Z,18.70
2018-03-23T19:36:53.214Z,17.15
2018-03-23T19:39:20.231Z,14.93
2018-03-23T19:41:46.516Z,15.98
2018-03-23T19:44:12.832Z,14.07
2018-03-23T19:46:40.016Z,14.50
2018-03-23T19:49:06.291Z,13.02
2018-03-23T19:51:32.649Z,15.93
2018-03-23T19:53:59.010Z,17.67
2018-03-23T19:56:25.333Z,15.55
2018-03-23T19:58:52.021Z,19.77
2018-03-23T20:01:18.321Z,14.18
2018-03-23T20:03:45.473Z,13.40
2018-03-23T20:06:11.751Z,14.93
2018-03-23T20:08:38.023Z,18.08
2018-03-23T20:11:04.340Z,14.40
2018-03-23T20:13:30.647Z,14.48
2018-03-23T20:15:57.673Z,13.30
2018-03-23T20:18:23.983Z,15.63
2018-03-23T20:20:56.341Z,14.75
2018-03-23T20:23:22.656Z,15.43
2018-03-23T20:25:48.980Z,19.50
2018-03-23T20:28:21.296Z,15.52
2018-03-23T20:30:47.627Z,19.65
2018-03-23T20:33:13.920Z,19.45
2018-03-23T20:35:40.193Z,19.27
2018-03-23T20:38:06.492Z,15.25
2018-03-23T20:40:32.788Z,23.08
2018-03-23T20:42:59.046Z,17.25
2018-03-23T20:45:25.379Z,16.20
2018-03-23T20:47:51.710Z,12.45
2018-03-23T20:50:17.989Z,18.00
2018-03-23T20:52:44.270Z,14.32
2018-03-23T20:55:10.528Z,16.73
2018-03-23T20:57:36.799Z,14.07
2018-03-23T21:00:03.848Z,20.02
2018-03-23T21:02:30.851Z,16.50
2018-03-23T21:04:57.128Z,14.70
2018-03-23T21:07:23.389Z,18.50
2018-03-23T21:09:49.623Z,16.42
2018-03-23T21:12:15.878Z,14.40
2018-03-23T21:14:42.154Z,19.20
2018-03-23T21:17:08.404Z,17.10
2018-03-23T21:19:34.672Z,16.40
2018-03-23T21:22:00.920Z,17.30
2018-03-23T21:24:27.915Z,15.70
2018-03-23T21:26:54.163Z,12.77
2018-03-23T21:29:20.715Z,19.52
2018-03-23T21:31:46.980Z,12.73
2018-03-23T21:34:13.255Z,16.23
2018-03-23T21:36:39.575Z,14.65
2018-03-23T21:39:05.856Z,16.52
2018-03-23T21:41:32.854Z,18.05
2018-03-23T21:43:59.107Z,17.85
2018-03-23T21:46:25.469Z,15.05
2018-03-23T21:48:51.756Z,17.65
2018-03-23T21:51:17.998Z,16.67
2018-03-23T21:53:44.247Z,13.15
2018-03-23T21:56:11.227Z,15.00
2018-03-23T21:58:37.496Z,17.80
2018-03-23T22:01:03.782Z,16.45
2018-03-23T22:03:30.047Z,19.02
2018-03-23T22:05:56.343Z,18.23
2018-03-23T22:08:22.878Z,21.42
2018-03-23T22:10:49.123Z,15.98
2018-03-23T22:13:15.382Z,15.52
2018-03-23T22:15:41.667Z,13.23
2018-03-23T22:18:14.873Z,17.77
2018-03-23T22:20:41.139Z,15.73
2018-03-23T22:23:07.371Z,20.98
2018-03-23T22:25:34.384Z,15.05
2018-03-23T22:28:00.640Z,19.33
2018-03-23T22:30:27.659Z,20.08
2018-03-23T22:32:53.926Z,16.92
2018-03-23T22:35:20.185Z,16.83
2018-03-23T22:37:46.467Z,21.40
2018-03-23T22:40:13.467Z,18.77
2018-03-23T22:42:39.716Z,20.35
2018-03-23T22:45:05.967Z,19.17
2018-03-23T22:47:32.260Z,19.58
2018-03-23T22:49:58.516Z,19.48
2018-03-23T22:52:24.789Z,16.45
2018-03-23T22:54:51.778Z,19.98
2018-03-23T22:57:18.021Z,17.40
2018-03-23T22:59:44.279Z,19.83
2018-03-23T23:02:10.530Z,19.48
2018-03-23T23:04:37.527Z,15.43
2018-03-23T23:07:03.790Z,15.60
2018-03-23T23:09:30.051Z,19.45
2018-03-23T23:11:56.295Z,21.25
2018-03-23T23:14:22.551Z,17.52
2018-03-23T23:16:48.831Z,17.00
2018-03-23T23:19:15.819Z,15.48
2018-03-23T23:21:42.129Z,16.12
2018-03-23T23:24:08.367Z,15.35
2018-03-23T23:26:34.627Z,18.85
2018-03-23T23:29:00.852Z,18.40
2018-03-23T23:31:27.108Z,19.85
2018-03-23T23:33:53.376Z,15.35
2018-03-23T23:36:19.640Z,15.70
2018-03-23T23:38:45.903Z,16.37
2018-03-23T23:41:12.908Z,18.15
2018-03-23T23:43:39.181Z,17.80
2018-03-23T23:46:06.183Z,25.77
2018-03-23T23:48:33.181Z,15.00
2018-03-23T23:50:59.457Z,19.45
2018-03-23T23:53:25.691Z,17.45
2018-03-23T23:55:51.971Z,15.02
2018-03-23T23:58:18.962Z,15.95
